sensor_id;sensor_type;location;lat;lon;timestamp;P1;durP1;ratioP1;P2;durP2;ratioP2
18224;SDS011;9237;48.590;8.854;2023-02-10T00:01:30;1.10;;;1.10;;
18224;SDS011;9237;48.590;8.854;2023-02-10T00:03:57;1.10;;;1.10;;
18224;SDS011;9237;48.590;8.854;2023-02-10T00:06:24;1.10;;;1.10;;
18224;SDS011;9237;48.590;8.854;2023-02-10T00:08:53;1.03;;;1.03;;
18224;SDS011;9237;48.590;8.854;2023-02-10T00:11:21;1.00;;;1.00;;
18224;SDS011;9237;48.590;8.854;2023-02-10T00:14:10;1.10;;;1.10;;
18224;SDS011;9237;48.590;8.854;2023-02-10T00:16:38;1.10;;;1.10;;
18224;SDS011;9237;48.590;8.854;2023-02-10T00:19:05;1.20;;;1.20;;
18224;SDS011;9237;48.590;8.854;2023-02-10T00:21:32;1.10;;;1.10;;
18224;SDS011;9237;48.590;8.854;2023-02-10T00:23:59;1.00;;;1.00;;
18224;SDS011;9237;48.590;8.854;2023-02-10T00:26:26;1.10;;;1.10;;
18224;SDS011;9237;48.590;8.854;2023-02-10T00:28:53;1.10;;;1.10;;
18224;SDS011;9237;48.590;8.854;2023-02-10T00:31:21;1.00;;;1.00;;
18224;SDS011;9237;48.590;8.854;2023-02-10T00:33:48;1.10;;;1.10;;
18224;SDS011;9237;48.590;8.854;2023-02-10T00:36:15;1.10;;;1.10;;
18224;SDS011;9237;48.590;8.854;2023-02-10T00:38:42;1.10;;;1.10;;
18224;SDS011;9237;48.590;8.854;2023-02-10T00:41:10;1.03;;;1.03;;
18224;SDS011;9237;48.590;8.854;2023-02-10T00:43:38;1.10;;;1.10;;
18224;SDS011;9237;48.590;8.854;2023-02-10T00:46:05;1.07;;;1.07;;
18224;SDS011;9237;48.590;8.854;2023-02-10T00:48:34;1.10;;;1.10;;
18224;SDS011;9237;48.590;8.854;2023-02-10T00:51:01;1.10;;;1.10;;
18224;SDS011;9237;48.590;8.854;2023-02-10T00:53:28;1.00;;;1.00;;
18224;SDS011;9237;48.590;8.854;2023-02-10T00:55:56;1.10;;;1.10;;
18224;SDS011;9237;48.590;8.854;2023-02-10T00:58:23;1.10;;;1.10;;
18224;SDS011;9237;48.590;8.854;2023-02-10T01:00:50;1.20;;;1.20;;
18224;SDS011;9237;48.590;8.854;2023-02-10T01:03:17;1.10;;;1.10;;
18224;SDS011;9237;48.590;8.854;2023-02-10T01:05:45;1.10;;;1.10;;
18224;SDS011;9237;48.590;8.854;2023-02-10T01:08:12;1.00;;;1.00;;
18224;SDS011;9237;48.590;8.854;2023-02-10T01:10:40;1.20;;;1.20;;
18224;SDS011;9237;48.590;8.854;2023-02-10T01:13:08;1.10;;;1.10;;
18224;SDS011;9237;48.590;8.854;2023-02-10T01:15:40;1.20;;;1.20;;
18224;SDS011;9237;48.590;8.854;2023-02-10T01:18:07;1.10;;;1.10;;
18224;SDS011;9237;48.590;8.854;2023-02-10T01:20:34;1.10;;;1.10;;
18224;SDS011;9237;48.590;8.854;2023-02-10T01:23:04;1.20;;;1.20;;
18224;SDS011;9237;48.590;8.854;2023-02-10T01:25:32;1.10;;;1.10;;
18224;SDS011;9237;48.590;8.854;2023-02-10T01:27:59;1.00;;;1.00;;
18224;SDS011;9237;48.590;8.854;2023-02-10T01:30:26;1.10;;;1.10;;
18224;SDS011;9237;48.590;8.854;2023-02-10T01:32:52;1.27;;;1.27;;
18224;SDS011;9237;48.590;8.854;2023-02-10T01:35:19;1.20;;;1.20;;
18224;SDS011;9237;48.590;8.854;2023-02-10T01:37:46;1.20;;;1.20;;
18224;SDS011;9237;48.590;8.854;2023-02-10T01:40:15;1.30;;;1.30;;
18224;SDS011;9237;48.590;8.854;2023-02-10T01:42:42;1.10;;;1.10;;
18224;SDS011;9237;48.590;8.854;2023-02-10T01:45:13;1.23;;;1.23;;
18224;SDS011;9237;48.590;8.854;2023-02-10T01:47:43;1.30;;;1.30;;
18224;SDS011;9237;48.590;8.854;2023-02-10T01:50:12;1.07;;;1.07;;
18224;SDS011;9237;48.590;8.854;2023-02-10T01:52:40;1.10;;;1.10;;
18224;SDS011;9237;48.590;8.854;2023-02-10T01:55:10;1.20;;;1.20;;
18224;SDS011;9237;48.590;8.854;2023-02-10T01:57:40;1.20;;;1.20;;
18224;SDS011;9237;48.590;8.854;2023-02-10T02:00:09;1.20;;;1.20;;
18224;SDS011;9237;48.590;8.854;2023-02-10T02:02:38;1.20;;;1.20;;
18224;SDS011;9237;48.590;8.854;2023-02-10T02:05:14;1.20;;;1.20;;
18224;SDS011;9237;48.590;8.854;2023-02-10T02:07:46;1.17;;;1.17;;
18224;SDS011;9237;48.590;8.854;2023-02-10T02:10:14;1.20;;;1.20;;
18224;SDS011;9237;48.590;8.854;2023-02-10T02:12:44;1.10;;;1.10;;
18224;SDS011;9237;48.590;8.854;2023-02-10T02:15:20;1.10;;;1.10;;
18224;SDS011;9237;48.590;8.854;2023-02-10T02:17:54;1.17;;;1.17;;
18224;SDS011;9237;48.590;8.854;2023-02-10T02:20:32;1.20;;;1.20;;
18224;SDS011;9237;48.590;8.854;2023-02-10T02:26:40;1.10;;;1.10;;
18224;SDS011;9237;48.590;8.854;2023-02-10T02:29:32;1.20;;;1.20;;
18224;SDS011;9237;48.590;8.854;2023-02-10T02:32:22;1.20;;;1.20;;
18224;SDS011;9237;48.590;8.854;2023-02-10T02:34:52;1.20;;;1.20;;
18224;SDS011;9237;48.590;8.854;2023-02-10T02:37:26;1.17;;;1.17;;
18224;SDS011;9237;48.590;8.854;2023-02-10T02:39:55;1.10;;;1.10;;
18224;SDS011;9237;48.590;8.854;2023-02-10T02:42:23;1.20;;;1.20;;
18224;SDS011;9237;48.590;8.854;2023-02-10T02:44:51;1.10;;;1.10;;
18224;SDS011;9237;48.590;8.854;2023-02-10T02:47:30;1.20;;;1.20;;
18224;SDS011;9237;48.590;8.854;2023-02-10T02:50:19;1.20;;;1.20;;
18224;SDS011;9237;48.590;8.854;2023-02-10T02:52:54;1.20;;;1.20;;
18224;SDS011;9237;48.590;8.854;2023-02-10T02:55:34;1.10;;;1.10;;
18224;SDS011;9237;48.590;8.854;2023-02-10T02:58:10;1.10;;;1.10;;
18224;SDS011;9237;48.590;8.854;2023-02-10T03:00:42;1.20;;;1.20;;
18224;SDS011;9237;48.590;8.854;2023-02-10T03:03:12;1.13;;;1.13;;
18224;SDS011;9237;48.590;8.854;2023-02-10T03:05:40;1.20;;;1.20;;
18224;SDS011;9237;48.590;8.854;2023-02-10T03:08:07;1.10;;;1.10;;
18224;SDS011;9237;48.590;8.854;2023-02-10T03:10:33;1.10;;;1.10;;
18224;SDS011;9237;48.590;8.854;2023-02-10T03:13:00;1.10;;;1.10;;
18224;SDS011;9237;48.590;8.854;2023-02-10T03:15:27;1.17;;;1.17;;
18224;SDS011;9237;48.590;8.854;2023-02-10T03:17:55;1.20;;;1.20;;
18224;SDS011;9237;48.590;8.854;2023-02-10T03:20:23;1.10;;;1.10;;
18224;SDS011;9237;48.590;8.854;2023-02-10T03:22:50;1.20;;;1.20;;
18224;SDS011;9237;48.590;8.854;2023-02-10T03:25:17;1.10;;;1.10;;
18224;SDS011;9237;48.590;8.854;2023-02-10T03:27:44;1.10;;;1.10;;
18224;SDS011;9237;48.590;8.854;2023-02-10T03:30:11;1.00;;;1.00;;
18224;SDS011;9237;48.590;8.854;2023-02-10T03:32:38;1.10;;;1.10;;
18224;SDS011;9237;48.590;8.854;2023-02-10T03:35:05;1.20;;;1.20;;
18224;SDS011;9237;48.590;8.854;2023-02-10T03:37:33;1.20;;;1.20;;
18224;SDS011;9237;48.590;8.854;2023-02-10T03:40:00;1.10;;;1.10;;
18224;SDS011;9237;48.590;8.854;2023-02-10T03:42:27;1.10;;;1.10;;
18224;SDS011;9237;48.590;8.854;2023-02-10T03:44:54;1.10;;;1.10;;
18224;SDS011;9237;48.590;8.854;2023-02-10T03:47:20;1.20;;;1.20;;
18224;SDS011;9237;48.590;8.854;2023-02-10T03:49:47;1.10;;;1.10;;
18224;SDS011;9237;48.590;8.854;2023-02-10T03:52:14;1.20;;;1.20;;
18224;SDS011;9237;48.590;8.854;2023-02-10T03:54:42;1.10;;;1.10;;
18224;SDS011;9237;48.590;8.854;2023-02-10T03:57:09;1.20;;;1.20;;
18224;SDS011;9237;48.590;8.854;2023-02-10T03:59:36;1.30;;;1.30;;
18224;SDS011;9237;48.590;8.854;2023-02-10T04:02:03;1.20;;;1.20;;
18224;SDS011;9237;48.590;8.854;2023-02-10T04:04:30;1.20;;;1.20;;
18224;SDS011;9237;48.590;8.854;2023-02-10T04:06:57;1.10;;;1.10;;
18224;SDS011;9237;48.590;8.854;2023-02-10T04:09:24;1.07;;;1.07;;
18224;SDS011;9237;48.590;8.854;2023-02-10T04:11:52;1.00;;;1.00;;
18224;SDS011;9237;48.590;8.854;2023-02-10T04:14:19;1.13;;;1.13;;
18224;SDS011;9237;48.590;8.854;2023-02-10T04:16:46;1.10;;;1.10;;
18224;SDS011;9237;48.590;8.854;2023-02-10T04:19:12;1.00;;;1.00;;
18224;SDS011;9237;48.590;8.854;2023-02-10T04:21:39;1.10;;;1.10;;
18224;SDS011;9237;48.590;8.854;2023-02-10T04:24:06;1.20;;;1.20;;
18224;SDS011;9237;48.590;8.854;2023-02-10T04:26:33;1.03;;;1.03;;
18224;SDS011;9237;48.590;8.854;2023-02-10T04:29:01;1.20;;;1.20;;
18224;SDS011;9237;48.590;8.854;2023-02-10T04:31:28;1.10;;;1.10;;
18224;SDS011;9237;48.590;8.854;2023-02-10T04:33:54;1.10;;;1.10;;
18224;SDS011;9237;48.590;8.854;2023-02-10T04:36:21;1.10;;;1.10;;
18224;SDS011;9237;48.590;8.854;2023-02-10T04:38:48;1.10;;;1.10;;
18224;SDS011;9237;48.590;8.854;2023-02-10T04:41:15;1.17;;;1.17;;
18224;SDS011;9237;48.590;8.854;2023-02-10T04:43:42;1.00;;;1.00;;
18224;SDS011;9237;48.590;8.854;2023-02-10T04:46:10;1.03;;;1.03;;
18224;SDS011;9237;48.590;8.854;2023-02-10T04:48:36;1.20;;;1.20;;
18224;SDS011;9237;48.590;8.854;2023-02-10T04:51:06;1.10;;;1.10;;
18224;SDS011;9237;48.590;8.854;2023-02-10T04:53:34;1.20;;;1.20;;
18224;SDS011;9237;48.590;8.854;2023-02-10T04:56:00;1.20;;;1.20;;
18224;SDS011;9237;48.590;8.854;2023-02-10T04:58:28;1.00;;;1.00;;
18224;SDS011;9237;48.590;8.854;2023-02-10T05:00:55;1.20;;;1.20;;
18224;SDS011;9237;48.590;8.854;2023-02-10T05:03:24;1.23;;;1.23;;
18224;SDS011;9237;48.590;8.854;2023-02-10T05:05:51;1.20;;;1.20;;
18224;SDS011;9237;48.590;8.854;2023-02-10T05:08:18;1.20;;;1.20;;
18224;SDS011;9237;48.590;8.854;2023-02-10T05:10:47;1.10;;;1.10;;
18224;SDS011;9237;48.590;8.854;2023-02-10T05:13:14;1.20;;;1.20;;
18224;SDS011;9237;48.590;8.854;2023-02-10T05:15:41;1.20;;;1.20;;
18224;SDS011;9237;48.590;8.854;2023-02-10T05:18:08;1.10;;;1.10;;
18224;SDS011;9237;48.590;8.854;2023-02-10T05:20:36;1.17;;;1.17;;
18224;SDS011;9237;48.590;8.854;2023-02-10T05:23:03;1.10;;;1.10;;
18224;SDS011;9237;48.590;8.854;2023-02-10T05:25:30;1.20;;;1.20;;
18224;SDS011;9237;48.590;8.854;2023-02-10T05:27:57;1.20;;;1.20;;
18224;SDS011;9237;48.590;8.854;2023-02-10T05:30:24;1.30;;;1.30;;
18224;SDS011;9237;48.590;8.854;2023-02-10T05:32:51;1.10;;;1.10;;
18224;SDS011;9237;48.590;8.854;2023-02-10T05:35:18;1.13;;;1.13;;
18224;SDS011;9237;48.590;8.854;2023-02-10T05:37:46;1.20;;;1.20;;
18224;SDS011;9237;48.590;8.854;2023-02-10T05:40:13;1.10;;;1.10;;
18224;SDS011;9237;48.590;8.854;2023-02-10T05:42:39;1.10;;;1.10;;
18224;SDS011;9237;48.590;8.854;2023-02-10T05:45:06;1.27;;;1.27;;
18224;SDS011;9237;48.590;8.854;2023-02-10T05:47:34;1.10;;;1.10;;
18224;SDS011;9237;48.590;8.854;2023-02-10T05:50:01;1.20;;;1.20;;
18224;SDS011;9237;48.590;8.854;2023-02-10T05:52:27;1.20;;;1.20;;
18224;SDS011;9237;48.590;8.854;2023-02-10T05:54:55;1.10;;;1.10;;
18224;SDS011;9237;48.590;8.854;2023-02-10T05:57:22;1.23;;;1.23;;
18224;SDS011;9237;48.590;8.854;2023-02-10T05:59:49;1.00;;;1.00;;
18224;SDS011;9237;48.590;8.854;2023-02-10T06:02:16;1.10;;;1.10;;
18224;SDS011;9237;48.590;8.854;2023-02-10T06:04:43;1.20;;;1.20;;
18224;SDS011;9237;48.590;8.854;2023-02-10T06:07:09;1.13;;;1.13;;
18224;SDS011;9237;48.590;8.854;2023-02-10T06:09:36;1.20;;;1.20;;
18224;SDS011;9237;48.590;8.854;2023-02-10T06:12:05;1.30;;;1.30;;
18224;SDS011;9237;48.590;8.854;2023-02-10T06:14:32;1.20;;;1.20;;
18224;SDS011;9237;48.590;8.854;2023-02-10T06:17:00;1.10;;;1.10;;
18224;SDS011;9237;48.590;8.854;2023-02-10T06:19:28;1.17;;;1.17;;
18224;SDS011;9237;48.590;8.854;2023-02-10T06:21:55;1.20;;;1.20;;
18224;SDS011;9237;48.590;8.854;2023-02-10T06:24:22;1.10;;;1.10;;
18224;SDS011;9237;48.590;8.854;2023-02-10T06:26:49;1.30;;;1.30;;
18224;SDS011;9237;48.590;8.854;2023-02-10T06:29:17;1.20;;;1.20;;
18224;SDS011;9237;48.590;8.854;2023-02-10T06:31:44;1.10;;;1.10;;
18224;SDS011;9237;48.590;8.854;2023-02-10T06:34:12;1.20;;;1.20;;
18224;SDS011;9237;48.590;8.854;2023-02-10T06:36:40;1.20;;;1.20;;
18224;SDS011;9237;48.590;8.854;2023-02-10T06:39:06;1.03;;;1.03;;
18224;SDS011;9237;48.590;8.854;2023-02-10T06:41:33;1.30;;;1.30;;
18224;SDS011;9237;48.590;8.854;2023-02-10T06:44:00;1.10;;;1.10;;
18224;SDS011;9237;48.590;8.854;2023-02-10T06:46:28;1.20;;;1.20;;
18224;SDS011;9237;48.590;8.854;2023-02-10T06:48:55;1.20;;;1.20;;
18224;SDS011;9237;48.590;8.854;2023-02-10T06:51:24;1.27;;;1.27;;
18224;SDS011;9237;48.590;8.854;2023-02-10T06:53:51;1.20;;;1.20;;
18224;SDS011;9237;48.590;8.854;2023-02-10T06:56:18;1.20;;;1.20;;
18224;SDS011;9237;48.590;8.854;2023-02-10T06:58:45;1.10;;;1.10;;
18224;SDS011;9237;48.590;8.854;2023-02-10T07:01:12;1.13;;;1.13;;
18224;SDS011;9237;48.590;8.854;2023-02-10T07:03:44;1.13;;;1.13;;
18224;SDS011;9237;48.590;8.854;2023-02-10T07:06:11;1.10;;;1.10;;
18224;SDS011;9237;48.590;8.854;2023-02-10T07:08:37;1.10;;;1.10;;
18224;SDS011;9237;48.590;8.854;2023-02-10T07:11:05;1.03;;;1.03;;
18224;SDS011;9237;48.590;8.854;2023-02-10T07:13:32;1.20;;;1.20;;
18224;SDS011;9237;48.590;8.854;2023-02-10T07:15:59;1.10;;;1.10;;
18224;SDS011;9237;48.590;8.854;2023-02-10T07:18:25;1.10;;;1.10;;
18224;SDS011;9237;48.590;8.854;2023-02-10T07:20:56;1.20;;;1.20;;
18224;SDS011;9237;48.590;8.854;2023-02-10T07:23:23;1.20;;;1.20;;
18224;SDS011;9237;48.590;8.854;2023-02-10T07:25:49;1.17;;;1.17;;
18224;SDS011;9237;48.590;8.854;2023-02-10T07:28:16;1.20;;;1.20;;
18224;SDS011;9237;48.590;8.854;2023-02-10T07:30:43;1.40;;;1.40;;
18224;SDS011;9237;48.590;8.854;2023-02-10T07:33:10;1.20;;;1.20;;
18224;SDS011;9237;48.590;8.854;2023-02-10T07:35:36;1.00;;;1.00;;
18224;SDS011;9237;48.590;8.854;2023-02-10T07:38:05;1.00;;;1.00;;
18224;SDS011;9237;48.590;8.854;2023-02-10T07:40:31;1.00;;;1.00;;
18224;SDS011;9237;48.590;8.854;2023-02-10T07:42:59;0.90;;;0.90;;
18224;SDS011;9237;48.590;8.854;2023-02-10T07:45:26;1.00;;;1.00;;
18224;SDS011;9237;48.590;8.854;2023-02-10T07:47:55;0.90;;;0.90;;
18224;SDS011;9237;48.590;8.854;2023-02-10T07:50:22;1.00;;;1.00;;
18224;SDS011;9237;48.590;8.854;2023-02-10T07:52:49;1.00;;;1.00;;
18224;SDS011;9237;48.590;8.854;2023-02-10T07:55:17;1.00;;;1.00;;
18224;SDS011;9237;48.590;8.854;2023-02-10T07:57:44;0.90;;;0.90;;
18224;SDS011;9237;48.590;8.854;2023-02-10T08:00:11;1.00;;;1.00;;
18224;SDS011;9237;48.590;8.854;2023-02-10T08:02:39;1.00;;;1.00;;
18224;SDS011;9237;48.590;8.854;2023-02-10T08:05:06;0.90;;;0.90;;
18224;SDS011;9237;48.590;8.854;2023-02-10T08:07:33;0.90;;;0.90;;
18224;SDS011;9237;48.590;8.854;2023-02-10T08:10:00;1.00;;;1.00;;
18224;SDS011;9237;48.590;8.854;2023-02-10T08:12:28;0.90;;;0.90;;
18224;SDS011;9237;48.590;8.854;2023-02-10T08:14:55;0.90;;;0.90;;
18224;SDS011;9237;48.590;8.854;2023-02-10T08:17:22;0.87;;;0.87;;
18224;SDS011;9237;48.590;8.854;2023-02-10T08:19:49;0.90;;;0.90;;
18224;SDS011;9237;48.590;8.854;2023-02-10T08:22:15;0.90;;;0.90;;
18224;SDS011;9237;48.590;8.854;2023-02-10T08:24:42;0.90;;;0.90;;
18224;SDS011;9237;48.590;8.854;2023-02-10T08:27:09;0.87;;;0.87;;
18224;SDS011;9237;48.590;8.854;2023-02-10T08:29:37;1.00;;;1.00;;
18224;SDS011;9237;48.590;8.854;2023-02-10T08:32:04;1.00;;;1.00;;
18224;SDS011;9237;48.590;8.854;2023-02-10T08:34:31;0.90;;;0.90;;
18224;SDS011;9237;48.590;8.854;2023-02-10T08:36:58;0.90;;;0.90;;
18224;SDS011;9237;48.590;8.854;2023-02-10T08:39:26;0.90;;;0.90;;
18224;SDS011;9237;48.590;8.854;2023-02-10T08:41:54;0.90;;;0.90;;
18224;SDS011;9237;48.590;8.854;2023-02-10T08:44:21;0.90;;;0.90;;
18224;SDS011;9237;48.590;8.854;2023-02-10T08:46:49;0.90;;;0.90;;
18224;SDS011;9237;48.590;8.854;2023-02-10T08:49:16;0.97;;;0.97;;
18224;SDS011;9237;48.590;8.854;2023-02-10T08:51:43;0.90;;;0.90;;
18224;SDS011;9237;48.590;8.854;2023-02-10T08:54:10;0.90;;;0.90;;
18224;SDS011;9237;48.590;8.854;2023-02-10T08:56:37;0.90;;;0.90;;
18224;SDS011;9237;48.590;8.854;2023-02-10T08:59:03;1.00;;;1.00;;
18224;SDS011;9237;48.590;8.854;2023-02-10T09:01:30;0.90;;;0.90;;
18224;SDS011;9237;48.590;8.854;2023-02-10T09:03:58;0.90;;;0.90;;
18224;SDS011;9237;48.590;8.854;2023-02-10T09:06:28;0.97;;;0.97;;
18224;SDS011;9237;48.590;8.854;2023-02-10T09:08:56;0.90;;;0.90;;
18224;SDS011;9237;48.590;8.854;2023-02-10T09:11:24;0.90;;;0.90;;
18224;SDS011;9237;48.590;8.854;2023-02-10T09:13:52;1.00;;;1.00;;
18224;SDS011;9237;48.590;8.854;2023-02-10T09:16:19;0.90;;;0.90;;
18224;SDS011;9237;48.590;8.854;2023-02-10T09:18:46;0.90;;;0.90;;
18224;SDS011;9237;48.590;8.854;2023-02-10T09:21:14;0.90;;;0.90;;
18224;SDS011;9237;48.590;8.854;2023-02-10T09:23:42;0.90;;;0.90;;
18224;SDS011;9237;48.590;8.854;2023-02-10T09:26:08;0.90;;;0.90;;
18224;SDS011;9237;48.590;8.854;2023-02-10T09:28:36;0.83;;;0.83;;
18224;SDS011;9237;48.590;8.854;2023-02-10T09:31:03;0.90;;;0.90;;
18224;SDS011;9237;48.590;8.854;2023-02-10T09:33:31;0.90;;;0.90;;
18224;SDS011;9237;48.590;8.854;2023-02-10T09:35:57;1.00;;;1.00;;
18224;SDS011;9237;48.590;8.854;2023-02-10T09:38:26;0.90;;;0.90;;
18224;SDS011;9237;48.590;8.854;2023-02-10T09:41:03;1.00;;;1.00;;
18224;SDS011;9237;48.590;8.854;2023-02-10T09:43:46;0.90;;;0.90;;
18224;SDS011;9237;48.590;8.854;2023-02-10T09:46:26;0.80;;;0.80;;
18224;SDS011;9237;48.590;8.854;2023-02-10T09:49:04;1.00;;;1.00;;
18224;SDS011;9237;48.590;8.854;2023-02-10T09:51:43;1.00;;;1.00;;
18224;SDS011;9237;48.590;8.854;2023-02-10T09:54:21;0.90;;;0.90;;
18224;SDS011;9237;48.590;8.854;2023-02-10T09:56:48;0.90;;;0.90;;
18224;SDS011;9237;48.590;8.854;2023-02-10T09:59:16;0.80;;;0.80;;
18224;SDS011;9237;48.590;8.854;2023-02-10T10:01:49;0.90;;;0.90;;
18224;SDS011;9237;48.590;8.854;2023-02-10T10:04:20;0.90;;;0.90;;
18224;SDS011;9237;48.590;8.854;2023-02-10T10:06:49;0.90;;;0.90;;
18224;SDS011;9237;48.590;8.854;2023-02-10T10:09:23;0.90;;;0.90;;
18224;SDS011;9237;48.590;8.854;2023-02-10T10:11:59;0.87;;;0.87;;
18224;SDS011;9237;48.590;8.854;2023-02-10T10:14:27;0.80;;;0.80;;
18224;SDS011;9237;48.590;8.854;2023-02-10T10:17:04;0.80;;;0.80;;
18224;SDS011;9237;48.590;8.854;2023-02-10T10:20:01;0.90;;;0.90;;
18224;SDS011;9237;48.590;8.854;2023-02-10T10:22:41;0.90;;;0.90;;
18224;SDS011;9237;48.590;8.854;2023-02-10T10:25:20;0.83;;;0.83;;
18224;SDS011;9237;48.590;8.854;2023-02-10T10:28:01;0.90;;;0.90;;
18224;SDS011;9237;48.590;8.854;2023-02-10T10:30:35;0.90;;;0.90;;
18224;SDS011;9237;48.590;8.854;2023-02-10T10:33:10;0.90;;;0.90;;
18224;SDS011;9237;48.590;8.854;2023-02-10T10:35:46;0.80;;;0.80;;
18224;SDS011;9237;48.590;8.854;2023-02-10T10:38:14;0.80;;;0.80;;
18224;SDS011;9237;48.590;8.854;2023-02-10T10:40:45;0.80;;;0.80;;
18224;SDS011;9237;48.590;8.854;2023-02-10T10:43:17;0.80;;;0.80;;
18224;SDS011;9237;48.590;8.854;2023-02-10T10:45:48;0.80;;;0.80;;
18224;SDS011;9237;48.590;8.854;2023-02-10T10:48:18;0.80;;;0.80;;
18224;SDS011;9237;48.590;8.854;2023-02-10T10:50:50;0.83;;;0.83;;
18224;SDS011;9237;48.590;8.854;2023-02-10T10:53:18;0.90;;;0.90;;
18224;SDS011;9237;48.590;8.854;2023-02-10T10:55:52;0.90;;;0.90;;
18224;SDS011;9237;48.590;8.854;2023-02-10T10:58:23;0.90;;;0.90;;
18224;SDS011;9237;48.590;8.854;2023-02-10T11:00:53;0.80;;;0.80;;
18224;SDS011;9237;48.590;8.854;2023-02-10T11:03:21;0.80;;;0.80;;
18224;SDS011;9237;48.590;8.854;2023-02-10T11:05:57;0.83;;;0.83;;
18224;SDS011;9237;48.590;8.854;2023-02-10T11:08:27;0.80;;;0.80;;
18224;SDS011;9237;48.590;8.854;2023-02-10T11:10:59;0.80;;;0.80;;
18224;SDS011;9237;48.590;8.854;2023-02-10T11:13:28;0.80;;;0.80;;
18224;SDS011;9237;48.590;8.854;2023-02-10T11:15:57;0.80;;;0.80;;
18224;SDS011;9237;48.590;8.854;2023-02-10T11:18:27;0.80;;;0.80;;
18224;SDS011;9237;48.590;8.854;2023-02-10T11:20:55;0.80;;;0.80;;
18224;SDS011;9237;48.590;8.854;2023-02-10T11:23:24;0.80;;;0.80;;
18224;SDS011;9237;48.590;8.854;2023-02-10T11:25:56;0.90;;;0.90;;
18224;SDS011;9237;48.590;8.854;2023-02-10T11:28:27;0.90;;;0.90;;
18224;SDS011;9237;48.590;8.854;2023-02-10T11:30:57;0.80;;;0.80;;
18224;SDS011;9237;48.590;8.854;2023-02-10T11:33:27;0.90;;;0.90;;
18224;SDS011;9237;48.590;8.854;2023-02-10T11:35:58;0.80;;;0.80;;
18224;SDS011;9237;48.590;8.854;2023-02-10T11:38:27;0.70;;;0.70;;
18224;SDS011;9237;48.590;8.854;2023-02-10T11:40:55;0.80;;;0.80;;
18224;SDS011;9237;48.590;8.854;2023-02-10T11:43:26;0.80;;;0.80;;
18224;SDS011;9237;48.590;8.854;2023-02-10T11:45:56;0.90;;;0.90;;
18224;SDS011;9237;48.590;8.854;2023-02-10T11:48:25;0.80;;;0.80;;
18224;SDS011;9237;48.590;8.854;2023-02-10T11:51:03;0.80;;;0.80;;
18224;SDS011;9237;48.590;8.854;2023-02-10T11:53:32;0.80;;;0.80;;
18224;SDS011;9237;48.590;8.854;2023-02-10T11:56:03;0.87;;;0.87;;
18224;SDS011;9237;48.590;8.854;2023-02-10T11:58:43;0.80;;;0.80;;
18224;SDS011;9237;48.590;8.854;2023-02-10T12:01:33;0.80;;;0.80;;
18224;SDS011;9237;48.590;8.854;2023-02-10T12:04:39;0.80;;;0.80;;
18224;SDS011;9237;48.590;8.854;2023-02-10T12:07:31;0.80;;;0.80;;
18224;SDS011;9237;48.590;8.854;2023-02-10T12:10:08;0.83;;;0.83;;
18224;SDS011;9237;48.590;8.854;2023-02-10T12:12:42;0.90;;;0.90;;
18224;SDS011;9237;48.590;8.854;2023-02-10T12:15:19;0.80;;;0.80;;
18224;SDS011;9237;48.590;8.854;2023-02-10T12:17:59;0.90;;;0.90;;
18224;SDS011;9237;48.590;8.854;2023-02-10T12:20:38;0.70;;;0.70;;
18224;SDS011;9237;48.590;8.854;2023-02-10T12:23:18;0.80;;;0.80;;
18224;SDS011;9237;48.590;8.854;2023-02-10T12:26:03;0.90;;;0.90;;
18224;SDS011;9237;48.590;8.854;2023-02-10T12:28:39;0.80;;;0.80;;
18224;SDS011;9237;48.590;8.854;2023-02-10T12:31:20;0.80;;;0.80;;
18224;SDS011;9237;48.590;8.854;2023-02-10T12:34:01;0.80;;;0.80;;
18224;SDS011;9237;48.590;8.854;2023-02-10T12:36:36;0.70;;;0.70;;
18224;SDS011;9237;48.590;8.854;2023-02-10T12:39:09;0.73;;;0.73;;
18224;SDS011;9237;48.590;8.854;2023-02-10T12:41:43;0.70;;;0.70;;
18224;SDS011;9237;48.590;8.854;2023-02-10T12:44:19;0.90;;;0.90;;
18224;SDS011;9237;48.590;8.854;2023-02-10T12:46:59;0.80;;;0.80;;
18224;SDS011;9237;48.590;8.854;2023-02-10T12:49:35;0.80;;;0.80;;
18224;SDS011;9237;48.590;8.854;2023-02-10T12:52:12;0.70;;;0.70;;
18224;SDS011;9237;48.590;8.854;2023-02-10T12:54:46;0.80;;;0.80;;
18224;SDS011;9237;48.590;8.854;2023-02-10T12:57:20;0.90;;;0.90;;
18224;SDS011;9237;48.590;8.854;2023-02-10T12:59:54;0.90;;;0.90;;
18224;SDS011;9237;48.590;8.854;2023-02-10T13:02:28;0.80;;;0.80;;
18224;SDS011;9237;48.590;8.854;2023-02-10T13:05:04;0.70;;;0.70;;
18224;SDS011;9237;48.590;8.854;2023-02-10T13:07:39;0.70;;;0.70;;
18224;SDS011;9237;48.590;8.854;2023-02-10T13:10:20;0.80;;;0.80;;
18224;SDS011;9237;48.590;8.854;2023-02-10T13:12:53;0.80;;;0.80;;
18224;SDS011;9237;48.590;8.854;2023-02-10T13:15:26;0.80;;;0.80;;
18224;SDS011;9237;48.590;8.854;2023-02-10T13:17:57;0.90;;;0.90;;
18224;SDS011;9237;48.590;8.854;2023-02-10T13:20:30;0.80;;;0.80;;
18224;SDS011;9237;48.590;8.854;2023-02-10T13:23:06;0.80;;;0.80;;
18224;SDS011;9237;48.590;8.854;2023-02-10T13:25:44;0.87;;;0.87;;
18224;SDS011;9237;48.590;8.854;2023-02-10T13:28:24;0.90;;;0.90;;
18224;SDS011;9237;48.590;8.854;2023-02-10T13:31:01;0.80;;;0.80;;
18224;SDS011;9237;48.590;8.854;2023-02-10T13:33:42;0.90;;;0.90;;
18224;SDS011;9237;48.590;8.854;2023-02-10T13:36:15;0.70;;;0.70;;
18224;SDS011;9237;48.590;8.854;2023-02-10T13:38:45;0.70;;;0.70;;
18224;SDS011;9237;48.590;8.854;2023-02-10T13:41:22;0.90;;;0.90;;
18224;SDS011;9237;48.590;8.854;2023-02-10T13:44:24;0.80;;;0.80;;
18224;SDS011;9237;48.590;8.854;2023-02-10T13:46:54;0.80;;;0.80;;
18224;SDS011;9237;48.590;8.854;2023-02-10T13:49:25;0.80;;;0.80;;
18224;SDS011;9237;48.590;8.854;2023-02-10T13:52:00;0.90;;;0.90;;
18224;SDS011;9237;48.590;8.854;2023-02-10T13:54:32;0.80;;;0.80;;
18224;SDS011;9237;48.590;8.854;2023-02-10T13:57:01;0.70;;;0.70;;
18224;SDS011;9237;48.590;8.854;2023-02-10T13:59:35;0.80;;;0.80;;
18224;SDS011;9237;48.590;8.854;2023-02-10T14:02:11;0.80;;;0.80;;
18224;SDS011;9237;48.590;8.854;2023-02-10T14:04:47;0.80;;;0.80;;
18224;SDS011;9237;48.590;8.854;2023-02-10T14:07:30;0.80;;;0.80;;
18224;SDS011;9237;48.590;8.854;2023-02-10T14:10:03;0.73;;;0.73;;
18224;SDS011;9237;48.590;8.854;2023-02-10T14:12:33;0.80;;;0.80;;
18224;SDS011;9237;48.590;8.854;2023-02-10T14:15:20;0.90;;;0.90;;
18224;SDS011;9237;48.590;8.854;2023-02-10T14:17:52;0.80;;;0.80;;
18224;SDS011;9237;48.590;8.854;2023-02-10T14:20:25;0.80;;;0.80;;
18224;SDS011;9237;48.590;8.854;2023-02-10T14:22:55;0.80;;;0.80;;
18224;SDS011;9237;48.590;8.854;2023-02-10T14:25:28;0.80;;;0.80;;
18224;SDS011;9237;48.590;8.854;2023-02-10T14:27:58;0.80;;;0.80;;
18224;SDS011;9237;48.590;8.854;2023-02-10T14:30:26;0.80;;;0.80;;
18224;SDS011;9237;48.590;8.854;2023-02-10T14:32:58;0.80;;;0.80;;
18224;SDS011;9237;48.590;8.854;2023-02-10T14:35:27;0.80;;;0.80;;
18224;SDS011;9237;48.590;8.854;2023-02-10T14:37:59;0.80;;;0.80;;
18224;SDS011;9237;48.590;8.854;2023-02-10T14:40:27;0.70;;;0.70;;
18224;SDS011;9237;48.590;8.854;2023-02-10T14:42:57;0.80;;;0.80;;
18224;SDS011;9237;48.590;8.854;2023-02-10T14:45:27;0.70;;;0.70;;
18224;SDS011;9237;48.590;8.854;2023-02-10T14:47:55;0.70;;;0.70;;
18224;SDS011;9237;48.590;8.854;2023-02-10T14:50:28;0.80;;;0.80;;
18224;SDS011;9237;48.590;8.854;2023-02-10T14:52:57;0.70;;;0.70;;
18224;SDS011;9237;48.590;8.854;2023-02-10T14:55:25;0.77;;;0.77;;
18224;SDS011;9237;48.590;8.854;2023-02-10T14:57:56;0.70;;;0.70;;
18224;SDS011;9237;48.590;8.854;2023-02-10T15:00:28;0.70;;;0.70;;
18224;SDS011;9237;48.590;8.854;2023-02-10T15:02:56;0.80;;;0.80;;
18224;SDS011;9237;48.590;8.854;2023-02-10T15:05:28;0.70;;;0.70;;
18224;SDS011;9237;48.590;8.854;2023-02-10T15:07:59;0.70;;;0.70;;
18224;SDS011;9237;48.590;8.854;2023-02-10T15:10:28;0.70;;;0.70;;
18224;SDS011;9237;48.590;8.854;2023-02-10T15:12:58;0.70;;;0.70;;
18224;SDS011;9237;48.590;8.854;2023-02-10T15:15:27;0.77;;;0.77;;
18224;SDS011;9237;48.590;8.854;2023-02-10T15:17:57;0.70;;;0.70;;
18224;SDS011;9237;48.590;8.854;2023-02-10T15:20:29;0.70;;;0.70;;
18224;SDS011;9237;48.590;8.854;2023-02-10T15:23:05;0.70;;;0.70;;